BKW Airport (Raleigh County Memorial) Information

FAA: BKW - ICAO: KBKW

BKW Airport Location

State West Virginia
County Raleigh
City Beckley
BKW Airport is 3 miles east of Beckley, WV.
Latitude 37-47-14.4000N
Longitude 081-07-27.0000W
Elevation 2,503ft

KBKW Airport METARs

METAR KBKW 281351Z AUTO 13015G27KT 10SM CLR 11/08 A2980 RMK AO2 PK WND 13027/1349 SLP094 T01110083 TSNO
Altimeter 29.80"
Temperature 11.1°C (52.0°F)
Wind 130° at 15KT with gusts to 27KT
Clouds Skies are clear.
Visibility 10.0mi
Time observed: 2021-10-28T13:51:00Z

BKW Airport Details

Status Operational
Activation September 1952
Ownership Public
Usage Public
Chart CINCINNATI
ATC on-site No
Beacon schedule sunset-sunrise
Beacon color clear green

BKW Airport Contacts

Owner RALEIGH COUNTY ARPT AUTH
Owner address 176 AIRPORT CIRCLE RM 105, BEAVER, WV 25813
Owner phone 304-255-0476
Manager GERALD GOLLEHON
Manager address 38436 GOLLEHON RD N., WILBUR, WA 99185
Manager phone 509-647-2859

BKW Airport (Raleigh County Memorial) Radio Frequencies

BKW (Airport) Radio Frequencies

UNICOM 123
Common traffic advisory frequency (CTAF) 123